createdAt,value
2018-05-01T00:01:00.495Z,51.20
2018-05-01T00:03:28.792Z,51.20
2018-05-01T00:05:57.063Z,51.20
2018-05-01T00:08:26.127Z,51.50
2018-05-01T00:10:55.211Z,51.40
2018-05-01T00:13:23.489Z,51.40
2018-05-01T00:15:51.785Z,51.40
2018-05-01T00:18:20.059Z,51.40
2018-05-01T00:20:48.515Z,51.30
2018-05-01T00:23:16.791Z,51.40
2018-05-01T00:25:45.101Z,51.50
2018-05-01T00:28:13.387Z,51.50
2018-05-01T00:30:41.697Z,51.60
2018-05-01T00:33:09.997Z,51.60
2018-05-01T00:35:38.318Z,51.70
2018-05-01T00:38:06.602Z,51.60
2018-05-01T00:40:35.019Z,51.60
2018-05-01T00:43:03.304Z,51.70
2018-05-01T00:45:32.354Z,51.90
2018-05-01T00:48:01.531Z,52.10
2018-05-01T00:50:29.809Z,52.30
2018-05-01T00:52:58.151Z,52.40
2018-05-01T00:55:26.405Z,52.70
2018-05-01T00:57:54.707Z,52.80
2018-05-01T01:00:23.773Z,53.00
2018-05-01T01:02:52.077Z,53.00
2018-05-01T01:05:20.348Z,52.90
2018-05-01T01:07:48.663Z,53.10
2018-05-01T01:10:17.047Z,53.20
2018-05-01T01:12:45.461Z,53.20
2018-05-01T01:15:13.864Z,53.40
2018-05-01T01:17:42.226Z,53.50
2018-05-01T01:20:10.495Z,53.60
2018-05-01T01:22:38.779Z,53.60
2018-05-01T01:25:07.088Z,53.60
2018-05-01T01:27:36.137Z,53.70
2018-05-01T01:30:04.479Z,53.70
2018-05-01T01:32:33.513Z,53.80
2018-05-01T01:35:01.331Z,53.90
2018-05-01T01:37:29.907Z,54.00
2018-05-01T01:39:57.694Z,54.00
2018-05-01T01:42:25.558Z,54.00
2018-05-01T01:44:53.355Z,54.20
2018-05-01T01:47:21.150Z,54.30
2018-05-01T01:49:48.962Z,54.40
2018-05-01T01:52:16.762Z,54.50
2018-05-01T01:54:44.591Z,54.60
2018-05-01T01:57:13.138Z,54.90
2018-05-01T01:59:40.950Z,55.00
2018-05-01T02:02:08.735Z,55.00
2018-05-01T02:04:36.526Z,55.10
2018-05-01T02:07:04.289Z,55.20
2018-05-01T02:09:32.151Z,55.30
2018-05-01T02:11:59.919Z,55.10
2018-05-01T02:14:27.711Z,55.20
2018-05-01T02:16:55.512Z,55.20
2018-05-01T02:19:23.305Z,55.40
2018-05-01T02:21:51.129Z,55.60
2018-05-01T02:24:18.909Z,55.50
2018-05-01T02:26:46.725Z,55.60
2018-05-01T02:29:14.512Z,55.80
2018-05-01T02:31:42.313Z,56.20
2018-05-01T02:34:10.090Z,56.60
2018-05-01T02:36:37.902Z,56.90
2018-05-01T02:39:05.681Z,57.10
2018-05-01T02:41:33.454Z,57.20
2018-05-01T02:44:02.039Z,57.70
2018-05-01T02:46:29.799Z,57.70
2018-05-01T02:48:57.591Z,57.80
2018-05-01T02:51:25.368Z,58.00
2018-05-01T02:53:53.159Z,58.00
2018-05-01T02:56:20.939Z,58.20
2018-05-01T02:58:48.755Z,58.20
2018-05-01T03:01:17.312Z,58.10
2018-05-01T03:03:45.086Z,58.00
2018-05-01T03:06:13.656Z,58.10
2018-05-01T03:08:41.434Z,58.10
2018-05-01T03:11:09.218Z,58.80
2018-05-01T03:13:36.993Z,58.10
2018-05-01T03:16:04.805Z,58.40
2018-05-01T03:18:32.601Z,58.70
2018-05-01T03:21:00.379Z,58.90
2018-05-01T03:23:28.941Z,59.40
2018-05-01T03:25:56.723Z,59.40
2018-05-01T03:28:25.294Z,60.10
2018-05-01T03:30:53.070Z,60.10
2018-05-01T03:33:21.638Z,60.50
2018-05-01T03:35:49.411Z,60.50
2018-05-01T03:38:17.175Z,60.50
2018-05-01T03:40:44.961Z,60.60
2018-05-01T03:43:13.498Z,61.10
2018-05-01T03:45:41.294Z,61.00
2018-05-01T03:48:09.089Z,61.20
2018-05-01T03:50:36.905Z,61.50
2018-05-01T03:53:04.673Z,61.70
2018-05-01T03:55:32.482Z,62.00
2018-05-01T03:58:00.998Z,62.10
2018-05-01T04:00:28.790Z,62.10
2018-05-01T04:02:56.554Z,62.10
2018-05-01T04:05:24.358Z,62.40
2018-05-01T04:07:52.129Z,62.60
2018-05-01T04:10:20.669Z,62.90
2018-05-01T04:12:48.459Z,62.90
2018-05-01T04:15:16.235Z,63.00
2018-05-01T04:17:44.789Z,63.10
2018-05-01T04:20:12.582Z,63.10
2018-05-01T04:22:41.296Z,63.10
2018-05-01T04:25:12.197Z,63.10
2018-05-01T04:27:40.003Z,63.20
2018-05-01T04:30:07.775Z,63.50
2018-05-01T04:32:35.556Z,63.50
2018-05-01T04:35:03.417Z,63.80
2018-05-01T04:37:31.197Z,63.90
2018-05-01T04:39:58.999Z,63.90
2018-05-01T04:42:26.812Z,63.90
2018-05-01T04:44:54.557Z,64.20
2018-05-01T04:47:22.331Z,64.20
2018-05-01T04:49:50.121Z,64.50
2018-05-01T04:52:17.883Z,64.40
2018-05-01T04:54:45.666Z,64.50
2018-05-01T04:57:13.439Z,64.60
2018-05-01T04:59:41.205Z,64.70
2018-05-01T05:02:09.023Z,64.80
2018-05-01T05:04:37.783Z,64.70
2018-05-01T05:07:05.558Z,64.70
2018-05-01T05:09:33.376Z,64.60
2018-05-01T05:12:01.115Z,65.50
2018-05-01T05:14:28.885Z,64.60
2018-05-01T05:16:56.674Z,64.60
2018-05-01T05:19:24.462Z,64.60
2018-05-01T05:21:52.226Z,64.70
2018-05-01T05:24:20.008Z,65.00
2018-05-01T05:26:48.247Z,65.10
2018-05-01T05:29:16.037Z,65.20
2018-05-01T05:31:43.824Z,65.30
2018-05-01T05:34:11.597Z,65.20
2018-05-01T05:36:40.129Z,65.40
2018-05-01T05:39:08.689Z,65.00
2018-05-01T05:41:36.502Z,65.00
2018-05-01T05:44:04.295Z,65.00
2018-05-01T05:46:32.058Z,65.00
2018-05-01T05:48:59.859Z,64.90
2018-05-01T05:51:27.660Z,65.50
2018-05-01T05:53:55.438Z,64.90
2018-05-01T05:56:23.264Z,64.80
2018-05-01T05:58:51.083Z,64.70
2018-05-01T06:01:18.875Z,64.80
2018-05-01T06:03:47.420Z,64.50
2018-05-01T06:06:15.223Z,64.50
2018-05-01T06:08:43.756Z,64.20
2018-05-01T06:11:11.587Z,64.20
2018-05-01T06:13:39.361Z,64.20
2018-05-01T06:16:07.117Z,64.30
2018-05-01T06:18:35.714Z,64.10
2018-05-01T06:21:04.247Z,63.70
2018-05-01T06:23:32.091Z,63.70
2018-05-01T06:25:59.847Z,63.00
2018-05-01T06:28:27.641Z,62.40
2018-05-01T06:30:55.431Z,62.10
2018-05-01T06:33:23.271Z,61.50
2018-05-01T06:35:51.034Z,61.00
2018-05-01T06:38:18.878Z,60.50
2018-05-01T06:40:46.681Z,60.10
2018-05-01T06:43:14.503Z,59.70
2018-05-01T06:45:42.567Z,59.60
2018-05-01T06:48:10.337Z,59.10
2018-05-01T06:50:38.151Z,58.80
2018-05-01T06:53:05.939Z,58.40
2018-05-01T06:55:33.734Z,57.70
2018-05-01T06:58:01.520Z,56.60
2018-05-01T07:00:30.365Z,55.60
2018-05-01T07:02:58.991Z,55.70
2018-05-01T07:05:26.843Z,55.20
2018-05-01T07:07:54.651Z,54.90
2018-05-01T07:10:22.596Z,54.70
2018-05-01T07:12:51.230Z,54.20
2018-05-01T07:15:19.377Z,54.10
2018-05-01T07:17:48.885Z,53.80
2018-05-01T07:20:16.913Z,54.40
2018-05-01T07:22:45.271Z,53.40
2018-05-01T07:25:13.835Z,53.20
2018-05-01T07:27:41.877Z,53.30
2018-05-01T07:30:09.725Z,53.30
2018-05-01T07:32:37.555Z,53.10
2018-05-01T07:35:06.178Z,52.10
2018-05-01T07:37:34.275Z,52.10
2018-05-01T07:42:37.272Z,51.80
2018-05-01T07:45:06.160Z,51.70
2018-05-01T07:47:33.945Z,51.70
2018-05-01T07:50:01.924Z,51.40
2018-05-01T07:52:29.925Z,51.00
2018-05-01T07:54:57.936Z,51.00
2018-05-01T07:57:25.734Z,51.30
2018-05-01T07:59:53.539Z,50.80
2018-05-01T08:02:22.082Z,50.50
2018-05-01T08:04:49.883Z,50.50
2018-05-01T08:07:17.686Z,50.20
2018-05-01T08:09:45.451Z,50.30
2018-05-01T08:12:13.560Z,49.90
2018-05-01T08:14:41.329Z,49.80
2018-05-01T08:17:09.145Z,49.70
2018-05-01T08:19:37.733Z,49.10
2018-05-01T08:22:05.572Z,49.10
2018-05-01T08:24:33.456Z,49.10
2018-05-01T08:27:06.900Z,49.30
2018-05-01T08:29:34.723Z,49.20
2018-05-01T08:32:03.424Z,48.90
2018-05-01T08:34:32.010Z,48.90
2018-05-01T08:37:00.720Z,48.30
2018-05-01T08:39:28.702Z,48.30
2018-05-01T08:41:56.639Z,48.10
2018-05-01T08:44:25.297Z,48.30
2018-05-01T08:46:53.667Z,48.10
2018-05-01T08:49:21.490Z,47.70
2018-05-01T08:51:49.383Z,47.60
2018-05-01T08:54:17.213Z,48.00
2018-05-01T08:56:45.864Z,47.70
2018-05-01T08:59:13.744Z,47.70
2018-05-01T09:01:42.327Z,47.50
2018-05-01T09:04:10.308Z,47.50
2018-05-01T09:06:38.091Z,47.40
2018-05-01T09:09:07.281Z,47.40
2018-05-01T09:11:35.294Z,47.60
2018-05-01T09:14:03.343Z,47.40
2018-05-01T09:16:32.159Z,46.90
2018-05-01T09:19:06.286Z,46.70
2018-05-01T09:24:44.549Z,46.40
2018-05-01T09:30:05.976Z,46.40
2018-05-01T09:32:35.407Z,46.10
2018-05-01T09:35:03.317Z,46.20
2018-05-01T09:37:31.137Z,46.10
2018-05-01T09:39:59.879Z,45.80
2018-05-01T09:42:27.745Z,45.80
2018-05-01T09:44:55.596Z,45.80
2018-05-01T09:47:23.487Z,45.50
2018-05-01T09:49:51.462Z,45.30
2018-05-01T09:52:19.891Z,45.20
2018-05-01T09:54:48.200Z,45.00
2018-05-01T09:57:16.568Z,45.20
2018-05-01T09:59:45.085Z,45.20
2018-05-01T10:02:14.171Z,45.40
2018-05-01T10:04:42.545Z,44.30
2018-05-01T10:07:13.664Z,44.00
2018-05-01T10:09:44.646Z,44.10
2018-05-01T10:12:13.884Z,44.10
2018-05-01T10:14:42.838Z,44.00
2018-05-01T10:17:11.210Z,43.70
2018-05-01T10:19:41.099Z,43.70
2018-05-01T10:22:10.173Z,43.70
2018-05-01T10:24:39.384Z,42.60
2018-05-01T10:27:07.832Z,42.50
2018-05-01T10:29:38.737Z,42.50
2018-05-01T10:32:07.086Z,42.50
2018-05-01T10:34:35.644Z,42.70
2018-05-01T10:37:04.430Z,42.80
2018-05-01T10:39:33.165Z,42.40
2018-05-01T10:42:01.490Z,42.20
2018-05-01T10:44:30.440Z,41.70
2018-05-01T10:46:58.869Z,41.40
2018-05-01T10:49:27.238Z,41.10
2018-05-01T10:51:56.139Z,41.20
2018-05-01T10:54:24.566Z,40.70
2018-05-01T10:56:52.872Z,40.30
2018-05-01T10:59:21.196Z,40.00
2018-05-01T11:01:49.480Z,39.70
2018-05-01T11:04:18.801Z,39.40
2018-05-01T11:06:47.152Z,39.20
2018-05-01T11:09:16.258Z,38.90
2018-05-01T11:11:45.323Z,39.10
2018-05-01T11:14:13.662Z,39.10
2018-05-01T11:16:42.008Z,39.00
2018-05-01T11:19:11.923Z,38.30
2018-05-01T11:21:40.251Z,38.20
2018-05-01T11:24:08.549Z,38.30
2018-05-01T11:26:36.914Z,38.20
2018-05-01T11:29:05.395Z,37.80
2018-05-01T11:31:33.713Z,37.90
2018-05-01T11:34:02.084Z,37.60
2018-05-01T11:36:30.697Z,37.30
2018-05-01T11:38:59.079Z,37.30
2018-05-01T11:41:28.134Z,36.10
2018-05-01T11:43:56.424Z,36.10
2018-05-01T11:46:24.897Z,36.10
2018-05-01T11:48:53.215Z,36.20
2018-05-01T11:51:22.412Z,34.40
2018-05-01T11:53:51.133Z,34.30
2018-05-01T11:56:22.690Z,34.60
2018-05-01T11:58:50.994Z,35.00
2018-05-01T12:01:19.619Z,34.70
2018-05-01T12:03:48.517Z,34.70
2018-05-01T12:06:17.279Z,35.00
2018-05-01T12:08:47.339Z,35.10
2018-05-01T12:11:25.610Z,35.30
2018-05-01T12:14:08.139Z,35.20
2018-05-01T12:16:37.285Z,35.10
2018-05-01T12:19:05.746Z,33.40
2018-05-01T12:21:34.215Z,32.30
2018-05-01T12:24:02.588Z,31.30
2018-05-01T12:26:32.097Z,30.50
2018-05-01T12:29:00.417Z,30.50
2018-05-01T12:31:28.715Z,30.60
2018-05-01T12:33:57.011Z,30.20
2018-05-01T12:36:26.110Z,30.00
2018-05-01T12:38:55.209Z,30.00
2018-05-01T12:41:24.286Z,30.40
2018-05-01T12:43:52.677Z,30.40
2018-05-01T12:46:21.786Z,29.90
2018-05-01T12:48:50.406Z,29.90
2018-05-01T12:51:19.125Z,29.50
2018-05-01T12:53:48.509Z,28.90
2018-05-01T12:56:16.946Z,28.90
2018-05-01T12:58:45.376Z,28.50
2018-05-01T13:01:13.729Z,28.40
2018-05-01T13:03:42.248Z,28.00
2018-05-01T13:06:11.493Z,26.80
2018-05-01T13:08:40.609Z,26.50
2018-05-01T13:11:09.508Z,26.40
2018-05-01T13:13:38.755Z,25.80
2018-05-01T13:16:07.933Z,25.50
2018-05-01T13:18:36.323Z,25.30
2018-05-01T13:21:04.642Z,25.90
2018-05-01T13:23:33.048Z,26.00
2018-05-01T13:26:01.413Z,26.40
2018-05-01T13:28:29.811Z,26.80
2018-05-01T13:30:58.182Z,26.60
2018-05-01T13:33:27.248Z,26.60
2018-05-01T13:35:56.403Z,27.00
2018-05-01T13:38:25.000Z,26.30
2018-05-01T13:40:53.761Z,26.20
2018-05-01T13:43:24.049Z,26.10
2018-05-01T13:45:52.764Z,25.60
2018-05-01T13:48:21.313Z,25.40
2018-05-01T13:50:49.751Z,25.10
2018-05-01T13:53:18.108Z,25.20
2018-05-01T13:55:46.504Z,25.40
2018-05-01T13:58:14.898Z,25.40
2018-05-01T14:00:43.328Z,25.20
2018-05-01T14:03:11.651Z,24.70
2018-05-01T14:05:40.024Z,24.40
2018-05-01T14:08:08.416Z,24.40
2018-05-01T14:10:36.724Z,24.30
2018-05-01T14:13:05.152Z,24.20
2018-05-01T14:15:33.521Z,24.30
2018-05-01T14:18:01.871Z,24.30
2018-05-01T14:20:30.242Z,24.70
2018-05-01T14:22:58.617Z,24.70
2018-05-01T14:25:27.094Z,24.70
2018-05-01T14:27:55.711Z,24.10
2018-05-01T14:30:24.240Z,24.10
2018-05-01T14:32:52.545Z,24.30
2018-05-01T14:35:20.894Z,24.50
2018-05-01T14:37:49.319Z,24.60
2018-05-01T14:40:17.735Z,24.70
2018-05-01T14:42:46.829Z,24.70
2018-05-01T14:45:15.130Z,24.70
2018-05-01T14:47:44.425Z,25.00
2018-05-01T15:01:08.256Z,24.60
2018-05-01T15:03:38.755Z,24.40
2018-05-01T15:06:09.061Z,24.30
2018-05-01T15:08:40.672Z,24.10
2018-05-01T15:11:11.180Z,24.30
2018-05-01T15:13:42.287Z,24.30
2018-05-01T15:16:13.661Z,24.30
2018-05-01T15:18:44.987Z,24.50
2018-05-01T15:28:46.659Z,24.20
2018-05-01T15:33:47.510Z,24.10
2018-05-01T15:43:58.642Z,25.20
2018-05-01T15:51:32.872Z,25.10
2018-05-01T16:04:07.549Z,25.50
2018-05-01T16:09:08.191Z,25.60
2018-05-01T16:11:39.373Z,25.50
2018-05-01T16:31:43.714Z,26.30
2018-05-01T16:34:15.302Z,26.40
2018-05-01T16:54:20.471Z,27.50
2018-05-01T17:14:24.839Z,27.70
2018-05-01T17:32:00.634Z,28.20
2018-05-01T17:52:07.003Z,28.70
2018-05-01T18:02:20.755Z,29.90
2018-05-01T18:20:10.876Z,31.60
2018-05-01T18:28:16.383Z,32.20
2018-05-01T18:31:18.631Z,32.60
2018-05-01T18:33:50.800Z,32.70
2018-05-01T18:36:26.290Z,33.20
2018-05-01T18:41:52.904Z,33.60
2018-05-01T18:44:23.732Z,33.80
2018-05-01T18:46:58.821Z,34.10
2018-05-01T18:49:35.714Z,34.10
2018-05-01T19:00:18.832Z,34.80
2018-05-01T19:02:52.267Z,35.20
2018-05-01T19:16:07.908Z,35.90
2018-05-01T19:21:11.165Z,36.30
2018-05-01T19:23:41.872Z,36.90
2018-05-01T19:26:13.498Z,36.60
2018-05-01T19:46:32.112Z,38.50
2018-05-01T19:51:33.452Z,39.00
2018-05-01T19:56:34.712Z,39.30
2018-05-01T20:04:10.414Z,39.80
2018-05-01T20:06:45.575Z,40.30
2018-05-01T20:16:51.653Z,41.20
2018-05-01T20:21:52.519Z,41.30
2018-05-01T20:26:53.562Z,41.40
2018-05-01T20:39:31.110Z,42.20
2018-05-01T20:42:02.269Z,42.40
2018-05-01T20:52:08.538Z,43.10
2018-05-01T20:57:11.320Z,43.40
2018-05-01T21:02:13.347Z,43.90
2018-05-01T21:07:16.037Z,44.30
2018-05-01T21:14:47.169Z,45.10
2018-05-01T21:54:53.229Z,47.80
2018-05-01T21:57:23.512Z,47.90
2018-05-01T22:02:23.913Z,47.90
2018-05-01T22:19:55.718Z,48.40
2018-05-01T22:42:28.329Z,49.50
2018-05-01T23:05:02.377Z,50.00
2018-05-01T23:17:34.240Z,50.50
